Terminal Aerodrome Forecast
Issued by NWS Twin Cities, MN

Home | Current Version | Previous Version | Text Only | Print | Product List | Glossary On
Versions: 1 2 3 4 5 6 7 8 9 10 11 12 13 14 15 16 17
000
FTUS43 KMPX 241120
TAFEAU
TAF
KEAU 241120Z 2412/2512 19004KT P6SM FEW110 SCT200
     FM241700 19012G20KT P6SM SCT060 SCT150
     FM250100 18008KT P6SM SCT060 SCT150 PROB30 2501/2506 -TSRA
      BKN050CB=

USA.gov is the U.S. government's official web portal to all federal, state and local government web resources and services.